createdAt,value
2018-08-10T00:00:41.457Z,26.22
2018-08-10T00:01:41.459Z,26.28
2018-08-10T00:02:41.465Z,26.25
2018-08-10T00:03:41.470Z,26.33
2018-08-10T00:04:41.479Z,26.34
2018-08-10T00:05:41.502Z,26.37
2018-08-10T00:06:41.485Z,26.43
2018-08-10T00:07:41.490Z,26.33
2018-08-10T00:08:41.502Z,26.31
2018-08-10T00:09:41.502Z,26.28
2018-08-10T00:10:41.507Z,26.25
2018-08-10T00:11:41.509Z,26.21
2018-08-10T00:12:42.171Z,26.22
2018-08-10T00:13:41.517Z,26.29
2018-08-10T00:14:41.524Z,26.33
2018-08-10T00:15:41.527Z,26.43
2018-08-10T00:16:41.530Z,26.45
2018-08-10T00:17:41.536Z,26.60
2018-08-10T00:18:41.542Z,26.62
2018-08-10T00:19:41.546Z,26.45
2018-08-10T00:20:41.555Z,26.38
2018-08-10T00:21:41.559Z,26.29
2018-08-10T00:22:41.560Z,26.18
2018-08-10T00:23:41.566Z,26.22
2018-08-10T00:24:41.570Z,26.18
2018-08-10T00:25:41.576Z,26.05
2018-08-10T00:26:41.579Z,26.02
2018-08-10T00:27:41.584Z,26.00
2018-08-10T00:28:41.590Z,25.93
2018-08-10T00:29:41.595Z,26.00
2018-08-10T00:30:41.601Z,26.09
2018-08-10T00:31:41.608Z,26.05
2018-08-10T00:32:41.608Z,26.07
2018-08-10T00:33:41.613Z,26.00
2018-08-10T00:34:41.618Z,26.03
2018-08-10T00:35:41.625Z,25.95
2018-08-10T00:36:41.628Z,25.96
2018-08-10T00:37:41.633Z,26.02
2018-08-10T00:38:41.637Z,26.06
2018-08-10T00:39:41.653Z,26.03
2018-08-10T00:40:41.650Z,25.99
2018-08-10T00:41:41.653Z,26.06
2018-08-10T00:42:41.659Z,26.05
2018-08-10T00:43:42.636Z,26.05
2018-08-10T00:44:41.674Z,26.16
2018-08-10T00:45:41.671Z,26.15
2018-08-10T00:46:41.676Z,25.98
2018-08-10T00:47:41.695Z,25.90
2018-08-10T00:48:41.690Z,25.99
2018-08-10T00:49:41.816Z,26.03
2018-08-10T00:50:41.808Z,26.19
2018-08-10T00:51:41.853Z,26.19
2018-08-10T00:52:41.809Z,26.18
2018-08-10T00:53:41.816Z,26.03
2018-08-10T00:54:41.926Z,26.05
2018-08-10T00:55:41.823Z,26.02
2018-08-10T00:56:41.860Z,26.00
2018-08-10T00:57:41.841Z,25.99
2018-08-10T00:58:41.792Z,25.93
2018-08-10T00:59:41.784Z,25.91
2018-08-10T01:00:41.880Z,25.93
2018-08-10T01:01:41.782Z,25.96
2018-08-10T01:02:41.912Z,25.98
2018-08-10T01:03:41.841Z,25.99
2018-08-10T01:04:41.763Z,25.93
2018-08-10T01:05:41.765Z,25.95
2018-08-10T01:06:41.773Z,25.95
2018-08-10T01:07:41.776Z,25.88
2018-08-10T01:08:41.779Z,25.95
2018-08-10T01:09:41.785Z,25.85
2018-08-10T01:10:41.790Z,25.85
2018-08-10T01:11:41.801Z,25.85
2018-08-10T01:12:41.798Z,25.85
2018-08-10T01:13:41.805Z,25.77
2018-08-10T01:14:41.810Z,25.81
2018-08-10T01:15:41.818Z,25.83
2018-08-10T01:16:41.836Z,25.78
2018-08-10T01:17:41.821Z,25.73
2018-08-10T01:18:41.829Z,25.69
2018-08-10T01:19:41.836Z,25.68
2018-08-10T01:20:41.836Z,25.63
2018-08-10T01:21:41.843Z,25.77
2018-08-10T01:22:41.844Z,25.75
2018-08-10T01:23:41.852Z,25.63
2018-08-10T01:24:41.857Z,25.54
2018-08-10T01:25:41.858Z,25.51
2018-08-10T01:26:41.864Z,25.36
2018-08-10T01:27:41.869Z,25.28
2018-08-10T01:28:41.911Z,25.33
2018-08-10T01:29:41.877Z,25.29
2018-08-10T01:30:41.883Z,25.25
2018-08-10T01:31:41.891Z,25.23
2018-08-10T01:32:41.889Z,25.25
2018-08-10T01:33:41.899Z,25.17
2018-08-10T01:34:41.904Z,25.16
2018-08-10T01:35:41.904Z,25.10
2018-08-10T01:36:41.909Z,25.10
2018-08-10T01:37:41.923Z,25.10
2018-08-10T01:38:41.922Z,25.13
2018-08-10T01:39:41.924Z,25.03
2018-08-10T01:40:41.939Z,25.01
2018-08-10T01:41:41.932Z,25.06
2018-08-10T01:42:41.936Z,24.91
2018-08-10T01:43:41.941Z,25.04
2018-08-10T01:44:41.947Z,24.91
2018-08-10T01:45:41.951Z,24.98
2018-08-10T01:46:41.956Z,25.04
2018-08-10T01:47:41.971Z,25.11
2018-08-10T01:48:41.961Z,25.06
2018-08-10T01:49:41.966Z,25.01
2018-08-10T01:50:41.971Z,24.99
2018-08-10T01:51:41.980Z,25.01
2018-08-10T01:52:41.979Z,25.01
2018-08-10T01:53:41.986Z,25.01
2018-08-10T01:54:43.644Z,24.86
2018-08-10T01:55:41.994Z,24.92
2018-08-10T01:56:42.003Z,24.91
2018-08-10T01:57:42.006Z,24.80
2018-08-10T01:58:42.020Z,24.85
2018-08-10T01:59:42.026Z,24.73
2018-08-10T02:00:42.014Z,24.65
2018-08-10T02:01:42.023Z,24.66
2018-08-10T02:02:42.026Z,24.61
2018-08-10T02:03:42.031Z,24.68
2018-08-10T02:04:42.031Z,24.55
2018-08-10T02:05:42.039Z,24.57
2018-08-10T02:06:42.042Z,24.43
2018-08-10T02:07:42.047Z,24.38
2018-08-10T02:08:42.050Z,24.40
2018-08-10T02:09:42.056Z,24.33
2018-08-10T02:10:42.056Z,24.30
2018-08-10T02:11:42.062Z,24.35
2018-08-10T02:12:42.066Z,24.28
2018-08-10T02:13:42.072Z,24.23
2018-08-10T02:14:42.075Z,24.20
2018-08-10T02:15:42.079Z,24.17
2018-08-10T02:16:42.082Z,24.20
2018-08-10T02:17:42.118Z,24.21
2018-08-10T02:18:42.091Z,24.16
2018-08-10T02:19:42.098Z,24.21
2018-08-10T02:20:42.098Z,24.20
2018-08-10T02:21:42.104Z,24.17
2018-08-10T02:22:42.107Z,24.13
2018-08-10T02:23:42.117Z,24.05
2018-08-10T02:24:42.139Z,24.06
2018-08-10T02:25:42.118Z,24.05
2018-08-10T02:26:42.122Z,24.02
2018-08-10T02:27:42.130Z,24.01
2018-08-10T02:28:42.146Z,23.98
2018-08-10T02:29:42.135Z,23.98
2018-08-10T02:30:42.140Z,23.96
2018-08-10T02:31:42.146Z,23.99
2018-08-10T02:32:42.200Z,23.96
2018-08-10T02:33:42.151Z,23.99
2018-08-10T02:34:42.161Z,23.96
2018-08-10T02:35:42.158Z,23.93
2018-08-10T02:36:42.163Z,23.95
2018-08-10T02:37:42.165Z,23.93
2018-08-10T02:38:42.174Z,23.88
2018-08-10T02:39:42.176Z,23.87
2018-08-10T02:40:42.185Z,23.92
2018-08-10T02:41:42.185Z,23.88
2018-08-10T02:42:42.187Z,23.91
2018-08-10T02:43:42.201Z,23.96
2018-08-10T02:44:42.193Z,23.87
2018-08-10T02:45:42.196Z,23.88
2018-08-10T02:46:42.388Z,23.87
2018-08-10T02:47:42.205Z,23.84
2018-08-10T02:48:42.210Z,23.84
2018-08-10T02:49:42.225Z,23.84
2018-08-10T02:50:42.217Z,23.87
2018-08-10T02:51:42.223Z,23.81
2018-08-10T02:52:42.226Z,23.77
2018-08-10T02:53:42.229Z,23.71
2018-08-10T02:54:42.239Z,23.77
2018-08-10T02:55:42.239Z,23.86
2018-08-10T02:56:42.239Z,23.74
2018-08-10T02:57:42.244Z,23.78
2018-08-10T02:58:42.248Z,23.74
2018-08-10T02:59:42.251Z,23.78
2018-08-10T03:00:42.258Z,23.74
2018-08-10T03:01:42.259Z,23.71
2018-08-10T03:02:42.263Z,23.69
2018-08-10T03:03:42.267Z,23.74
2018-08-10T03:04:42.272Z,23.73
2018-08-10T03:05:42.280Z,23.73
2018-08-10T03:06:42.278Z,23.73
2018-08-10T03:07:42.284Z,23.76
2018-08-10T03:08:42.285Z,23.68
2018-08-10T03:09:42.292Z,23.73
2018-08-10T03:10:42.297Z,23.73
2018-08-10T03:11:42.297Z,23.74
2018-08-10T03:12:42.301Z,23.68
2018-08-10T03:13:42.306Z,23.73
2018-08-10T03:14:42.312Z,23.66
2018-08-10T03:15:42.324Z,23.69
2018-08-10T03:16:42.321Z,23.59
2018-08-10T03:17:42.837Z,23.59
2018-08-10T03:18:42.324Z,23.62
2018-08-10T03:19:42.328Z,23.65
2018-08-10T03:20:42.331Z,23.62
2018-08-10T03:21:42.334Z,23.63
2018-08-10T03:22:42.340Z,23.65
2018-08-10T03:23:42.353Z,23.62
2018-08-10T03:24:42.348Z,23.54
2018-08-10T03:25:42.355Z,23.62
2018-08-10T03:26:42.358Z,23.56
2018-08-10T03:27:42.359Z,23.58
2018-08-10T03:28:42.363Z,23.50
2018-08-10T03:29:42.367Z,23.63
2018-08-10T03:30:42.370Z,23.50
2018-08-10T03:31:42.373Z,23.48
2018-08-10T03:32:42.376Z,23.56
2018-08-10T03:33:42.382Z,23.55
2018-08-10T03:34:42.384Z,23.48
2018-08-10T03:35:42.388Z,23.43
2018-08-10T03:36:42.392Z,23.46
2018-08-10T03:37:42.394Z,23.44
2018-08-10T03:38:42.399Z,23.43
2018-08-10T03:39:42.401Z,23.37
2018-08-10T03:40:42.405Z,23.40
2018-08-10T03:41:42.413Z,23.37
2018-08-10T03:42:42.418Z,23.31
2018-08-10T03:43:42.417Z,23.36
2018-08-10T03:44:42.419Z,23.32
2018-08-10T03:45:42.423Z,23.40
2018-08-10T03:46:42.427Z,23.39
2018-08-10T03:47:42.432Z,23.28
2018-08-10T03:48:43.254Z,23.41
2018-08-10T03:49:42.493Z,23.40
2018-08-10T03:50:42.444Z,23.46
2018-08-10T03:51:42.446Z,23.44
2018-08-10T03:52:42.456Z,23.39
2018-08-10T03:53:42.452Z,23.39
2018-08-10T03:54:42.459Z,23.39
2018-08-10T03:55:42.462Z,23.37
2018-08-10T03:56:42.465Z,23.37
2018-08-10T03:57:42.471Z,23.34
2018-08-10T03:58:42.471Z,23.40
2018-08-10T03:59:42.477Z,23.34
2018-08-10T04:00:42.524Z,23.44
2018-08-10T04:01:42.482Z,23.36
2018-08-10T04:02:42.486Z,23.34
2018-08-10T04:03:42.493Z,23.31
2018-08-10T04:04:42.500Z,23.34
2018-08-10T04:05:42.497Z,23.34
2018-08-10T04:06:42.501Z,23.32
2018-08-10T04:07:42.505Z,23.40
2018-08-10T04:08:42.509Z,23.41
2018-08-10T04:09:42.512Z,23.41
2018-08-10T04:10:42.518Z,23.40
2018-08-10T04:11:42.520Z,23.37
2018-08-10T04:12:42.524Z,23.32
2018-08-10T04:13:42.528Z,23.25
2018-08-10T04:14:42.530Z,23.39
2018-08-10T04:15:42.533Z,23.25
2018-08-10T04:16:42.541Z,23.36
2018-08-10T04:17:42.540Z,23.32
2018-08-10T04:18:42.544Z,23.24
2018-08-10T04:19:42.549Z,23.25
2018-08-10T04:20:42.552Z,23.28
2018-08-10T04:21:42.556Z,23.23
2018-08-10T04:22:42.561Z,23.15
2018-08-10T04:23:42.564Z,23.10
2018-08-10T04:24:42.581Z,23.15
2018-08-10T04:25:42.570Z,23.18
2018-08-10T04:26:42.575Z,23.13
2018-08-10T04:27:42.577Z,23.12
2018-08-10T04:28:42.582Z,23.17
2018-08-10T04:29:42.673Z,23.23
2018-08-10T04:30:42.590Z,23.23
2018-08-10T04:31:42.594Z,23.25
2018-08-10T04:32:42.597Z,23.23
2018-08-10T04:33:42.599Z,23.25
2018-08-10T04:34:42.605Z,23.24
2018-08-10T04:35:42.609Z,23.27
2018-08-10T04:36:42.609Z,23.23
2018-08-10T04:37:42.615Z,23.15
2018-08-10T04:38:42.618Z,23.15
2018-08-10T04:39:42.621Z,23.13
2018-08-10T04:40:44.517Z,23.13
2018-08-10T04:41:42.631Z,23.25
2018-08-10T04:42:42.635Z,23.21
2018-08-10T04:43:42.635Z,23.27
2018-08-10T04:44:42.639Z,23.25
2018-08-10T04:45:42.641Z,23.24
2018-08-10T04:46:42.695Z,23.17
2018-08-10T04:47:42.649Z,23.23
2018-08-10T04:48:42.652Z,23.25
2018-08-10T04:49:42.655Z,23.13
2018-08-10T04:50:42.662Z,23.13
2018-08-10T04:51:42.666Z,23.17
2018-08-10T04:52:42.668Z,23.20
2018-08-10T04:53:42.670Z,23.20
2018-08-10T04:54:42.675Z,23.18
2018-08-10T04:55:42.678Z,23.12
2018-08-10T04:56:42.681Z,23.13
2018-08-10T04:57:42.685Z,23.20
2018-08-10T04:58:42.690Z,23.23
2018-08-10T04:59:42.695Z,23.23
2018-08-10T05:00:42.695Z,23.32
2018-08-10T05:01:42.700Z,23.24
2018-08-10T05:02:42.707Z,23.27
2018-08-10T05:03:42.751Z,23.28
2018-08-10T05:04:42.710Z,23.25
2018-08-10T05:05:42.713Z,23.25
2018-08-10T05:06:42.717Z,23.34
2018-08-10T05:07:42.726Z,23.37
2018-08-10T05:08:42.749Z,23.28
2018-08-10T05:09:42.731Z,23.27
2018-08-10T05:10:42.732Z,23.28
2018-08-10T05:11:42.736Z,23.28
2018-08-10T05:12:42.740Z,23.31
2018-08-10T05:13:42.743Z,23.23
2018-08-10T05:14:42.754Z,23.32
2018-08-10T05:15:42.784Z,23.23
2018-08-10T05:16:42.759Z,23.27
2018-08-10T05:17:42.758Z,23.20
2018-08-10T05:18:42.763Z,23.17
2018-08-10T05:19:42.767Z,23.09
2018-08-10T05:20:42.768Z,23.12
2018-08-10T05:21:42.774Z,23.12
2018-08-10T05:22:42.776Z,23.24
2018-08-10T05:23:42.780Z,23.13
2018-08-10T05:24:42.785Z,23.18
2018-08-10T05:25:42.787Z,23.10
2018-08-10T05:26:42.807Z,23.10
2018-08-10T05:27:42.800Z,23.06
2018-08-10T05:28:42.842Z,23.12
2018-08-10T05:29:42.910Z,22.98
2018-08-10T05:30:43.082Z,23.05
2018-08-10T05:31:42.821Z,22.99
2018-08-10T05:32:42.813Z,23.02
2018-08-10T05:33:42.848Z,23.05
2018-08-10T05:34:42.829Z,23.06
2018-08-10T05:35:42.833Z,23.00
2018-08-10T05:36:42.833Z,22.98
2018-08-10T05:37:42.838Z,22.96
2018-08-10T05:38:42.835Z,23.06
2018-08-10T05:39:42.839Z,23.02
2018-08-10T05:40:42.857Z,22.96
2018-08-10T05:41:42.854Z,22.94
2018-08-10T05:42:42.849Z,22.88
2018-08-10T05:43:42.986Z,22.72
2018-08-10T05:44:42.866Z,22.81
2018-08-10T05:45:42.884Z,22.66
2018-08-10T05:46:42.889Z,22.66
2018-08-10T05:47:42.902Z,22.69
2018-08-10T05:48:42.891Z,22.66
2018-08-10T05:49:42.899Z,22.70
2018-08-10T05:50:42.894Z,22.66
2018-08-10T05:51:43.013Z,22.66
2018-08-10T05:52:42.896Z,22.63
2018-08-10T05:53:43.139Z,22.75
2018-08-10T05:54:43.070Z,22.76
2018-08-10T05:55:42.895Z,22.76
2018-08-10T05:56:42.919Z,22.75
2018-08-10T05:57:42.938Z,22.87
2018-08-10T05:58:42.917Z,22.81
2018-08-10T05:59:42.909Z,22.75
2018-08-10T06:00:42.956Z,22.73
2018-08-10T06:01:42.915Z,22.75
2018-08-10T06:02:42.932Z,22.76
2018-08-10T06:03:43.006Z,22.76
2018-08-10T06:04:42.925Z,22.73
2018-08-10T06:05:42.929Z,22.75
2018-08-10T06:06:42.935Z,22.76
2018-08-10T06:07:42.937Z,22.87
2018-08-10T06:08:42.953Z,22.72
2018-08-10T06:09:42.952Z,22.84
2018-08-10T06:10:42.965Z,22.69
2018-08-10T06:11:42.953Z,22.69
2018-08-10T06:12:42.954Z,22.63
2018-08-10T06:13:42.958Z,22.63
2018-08-10T06:14:43.181Z,22.69
2018-08-10T06:15:42.965Z,22.68
2018-08-10T06:16:42.975Z,22.59
2018-08-10T06:17:42.982Z,22.68
2018-08-10T06:18:43.001Z,22.73
2018-08-10T06:19:42.980Z,22.76
2018-08-10T06:20:42.985Z,22.78
2018-08-10T06:21:43.088Z,22.85
2018-08-10T06:22:43.439Z,22.87
2018-08-10T06:23:42.993Z,22.93
2018-08-10T06:24:43.003Z,22.96
2018-08-10T06:25:43.002Z,22.93
2018-08-10T06:26:43.005Z,22.98
2018-08-10T06:27:43.067Z,22.90
2018-08-10T06:28:43.009Z,22.87
2018-08-10T06:29:43.013Z,22.91
2018-08-10T06:30:43.018Z,22.81
2018-08-10T06:31:43.025Z,22.84
2018-08-10T06:32:43.026Z,22.85
2018-08-10T06:33:43.090Z,22.75
2018-08-10T06:34:43.036Z,22.78
2018-08-10T06:35:43.061Z,22.76
2018-08-10T06:36:43.042Z,22.80
2018-08-10T06:37:43.043Z,22.84
2018-08-10T06:38:43.047Z,22.91
2018-08-10T06:39:43.054Z,22.90
2018-08-10T06:40:43.054Z,22.93
2018-08-10T06:41:43.059Z,22.85
2018-08-10T06:42:43.060Z,23.00
2018-08-10T06:43:43.065Z,22.99
2018-08-10T06:44:43.080Z,22.96
2018-08-10T06:45:43.074Z,23.09
2018-08-10T06:46:43.075Z,22.99
2018-08-10T06:47:43.081Z,23.09
2018-08-10T06:48:43.082Z,23.12
2018-08-10T06:49:43.092Z,23.23
2018-08-10T06:50:43.095Z,23.32
2018-08-10T06:51:43.109Z,23.27
2018-08-10T06:52:43.108Z,23.25
2018-08-10T06:53:43.855Z,23.23
2018-08-10T06:54:43.105Z,23.27
2018-08-10T06:55:43.142Z,23.23
2018-08-10T06:56:43.117Z,23.20
2018-08-10T06:57:43.115Z,23.28
2018-08-10T06:58:43.119Z,23.27
2018-08-10T06:59:43.124Z,23.31
2018-08-10T07:00:43.209Z,23.27
2018-08-10T07:01:43.132Z,23.25
2018-08-10T07:02:43.132Z,23.23
2018-08-10T07:03:43.139Z,23.27
2018-08-10T07:04:43.141Z,23.27
2018-08-10T07:05:43.145Z,23.31
2018-08-10T07:06:43.157Z,23.34
2018-08-10T07:07:43.153Z,23.25
2018-08-10T07:08:43.163Z,23.23
2018-08-10T07:09:43.160Z,23.31
2018-08-10T07:10:43.163Z,23.27
2018-08-10T07:11:43.166Z,23.24
2018-08-10T07:12:43.170Z,23.23
2018-08-10T07:13:43.321Z,23.24
2018-08-10T07:14:43.178Z,23.25
2018-08-10T07:15:43.181Z,23.20
2018-08-10T07:16:43.193Z,23.20
2018-08-10T07:17:43.197Z,23.12
2018-08-10T07:18:43.193Z,23.12
2018-08-10T07:19:43.226Z,23.21
2018-08-10T07:20:43.417Z,23.25
2018-08-10T07:21:43.202Z,23.12
2018-08-10T07:22:43.210Z,23.10
2018-08-10T07:23:43.222Z,23.10
2018-08-10T07:24:43.214Z,23.09
2018-08-10T07:25:43.217Z,23.18
2018-08-10T07:26:43.222Z,23.17
2018-08-10T07:27:43.229Z,23.12
2018-08-10T07:28:43.231Z,23.15
2018-08-10T07:29:43.237Z,23.13
2018-08-10T07:30:43.239Z,23.23
2018-08-10T07:31:43.250Z,23.37
2018-08-10T07:32:43.244Z,23.37
2018-08-10T07:33:43.249Z,23.40
2018-08-10T07:34:43.254Z,23.36
2018-08-10T07:35:43.263Z,23.48
2018-08-10T07:36:43.261Z,23.47
2018-08-10T07:37:43.261Z,23.47
2018-08-10T07:38:43.267Z,23.55
2018-08-10T07:39:43.269Z,23.50
2018-08-10T07:40:43.275Z,23.58
2018-08-10T07:41:43.276Z,23.58
2018-08-10T07:42:43.282Z,23.54
2018-08-10T07:43:43.301Z,23.50
2018-08-10T07:44:43.287Z,23.54
2018-08-10T07:45:43.294Z,23.50
2018-08-10T07:46:43.310Z,23.54
2018-08-10T07:47:43.304Z,23.56
2018-08-10T07:48:43.303Z,23.50
2018-08-10T07:49:43.310Z,23.56
2018-08-10T07:50:43.311Z,23.56
2018-08-10T07:51:43.340Z,23.55
2018-08-10T07:52:43.637Z,23.63
2018-08-10T07:53:43.324Z,23.61
2018-08-10T07:54:43.326Z,23.62
2018-08-10T07:55:43.331Z,23.63
2018-08-10T07:56:43.337Z,23.58
2018-08-10T07:57:43.338Z,23.54
2018-08-10T07:58:43.342Z,23.56
2018-08-10T07:59:43.349Z,23.47
2018-08-10T08:00:43.352Z,23.41
2018-08-10T08:01:43.356Z,23.36
2018-08-10T08:02:43.383Z,23.36
2018-08-10T08:03:43.378Z,23.23
2018-08-10T08:04:43.554Z,23.23
2018-08-10T08:05:43.381Z,23.27
2018-08-10T08:06:43.375Z,23.21
2018-08-10T08:07:43.378Z,23.24
2018-08-10T08:08:43.382Z,23.27
2018-08-10T08:09:43.889Z,23.24
2018-08-10T08:10:43.469Z,23.31
2018-08-10T08:11:43.394Z,23.23
2018-08-10T08:12:43.442Z,23.20
2018-08-10T08:13:43.459Z,23.24
2018-08-10T08:14:43.402Z,23.27
2018-08-10T08:15:43.428Z,23.28
2018-08-10T08:16:43.412Z,23.28
2018-08-10T08:17:43.454Z,23.21
2018-08-10T08:18:43.538Z,23.13
2018-08-10T08:19:43.462Z,23.23
2018-08-10T08:20:43.563Z,23.17
2018-08-10T08:21:43.436Z,23.10
2018-08-10T08:22:43.465Z,23.17
2018-08-10T08:23:43.439Z,23.02
2018-08-10T08:24:43.440Z,23.08
2018-08-10T08:25:43.442Z,23.13
2018-08-10T08:26:43.448Z,23.13
2018-08-10T08:27:43.455Z,22.96
2018-08-10T08:28:43.453Z,22.96
2018-08-10T08:29:43.568Z,23.00
2018-08-10T08:30:43.513Z,23.00
2018-08-10T08:31:43.509Z,23.00
2018-08-10T08:32:43.552Z,22.91
2018-08-10T08:33:43.470Z,22.94
2018-08-10T08:34:43.537Z,22.99
2018-08-10T08:35:43.481Z,22.93
2018-08-10T08:36:43.483Z,22.93
2018-08-10T08:37:43.485Z,23.05
2018-08-10T08:38:43.694Z,23.08
2018-08-10T08:39:43.517Z,23.20
2018-08-10T08:40:43.494Z,23.28
2018-08-10T08:41:43.500Z,23.27
2018-08-10T08:42:43.506Z,23.28
2018-08-10T08:43:43.511Z,23.27
2018-08-10T08:44:43.511Z,23.34
2018-08-10T08:45:43.669Z,23.18
2018-08-10T08:46:43.620Z,23.23
2018-08-10T08:47:43.522Z,23.17
2018-08-10T08:48:43.528Z,23.17
2018-08-10T08:49:44.240Z,23.13
2018-08-10T08:50:43.532Z,23.15
2018-08-10T08:51:43.538Z,23.27
2018-08-10T08:52:43.540Z,23.27
2018-08-10T08:53:43.556Z,23.28
2018-08-10T08:54:43.548Z,23.25
2018-08-10T08:55:43.553Z,23.25
2018-08-10T08:56:43.845Z,23.62
2018-08-10T08:57:43.562Z,24.08
2018-08-10T08:58:43.568Z,24.66
2018-08-10T08:59:43.568Z,25.53
2018-08-10T09:00:43.573Z,26.55
2018-08-10T09:01:43.574Z,27.47
2018-08-10T09:02:43.580Z,28.27
2018-08-10T09:03:43.612Z,29.16
2018-08-10T09:04:43.593Z,29.81
2018-08-10T09:05:43.596Z,29.76
2018-08-10T09:06:44.140Z,29.71
2018-08-10T09:07:50.169Z,29.42
2018-08-10T09:08:43.611Z,28.94
2018-08-10T09:09:43.620Z,28.26
2018-08-10T09:10:43.655Z,27.67
2018-08-10T09:11:43.626Z,27.15
2018-08-10T09:12:43.703Z,26.75
2018-08-10T09:13:43.653Z,26.43
2018-08-10T09:14:43.654Z,26.85
2018-08-10T09:15:43.647Z,26.80
2018-08-10T09:16:43.654Z,26.70
2018-08-10T09:17:43.748Z,26.52
2018-08-10T09:18:43.669Z,27.27
2018-08-10T09:19:43.667Z,28.47
2018-08-10T09:20:43.676Z,29.47
2018-08-10T09:21:43.680Z,29.91
2018-08-10T09:22:43.723Z,30.72
2018-08-10T09:23:43.693Z,31.36
2018-08-10T09:24:43.697Z,31.44
2018-08-10T09:25:43.717Z,32.04
2018-08-10T09:26:44.660Z,32.65
2018-08-10T09:27:44.368Z,33.22
2018-08-10T09:28:43.722Z,33.17
2018-08-10T09:29:43.730Z,33.43
2018-08-10T09:30:43.744Z,33.62
2018-08-10T09:31:43.744Z,33.57
2018-08-10T09:32:43.754Z,33.22
2018-08-10T09:33:43.759Z,32.71
2018-08-10T09:34:43.767Z,32.19
2018-08-10T09:35:43.774Z,31.66
2018-08-10T09:36:43.782Z,30.99
2018-08-10T09:37:43.789Z,30.34
2018-08-10T09:38:43.813Z,29.68
2018-08-10T09:39:43.806Z,29.14
2018-08-10T09:40:43.816Z,28.84
2018-08-10T09:41:43.828Z,28.54
2018-08-10T09:42:44.022Z,28.22
2018-08-10T09:43:43.839Z,28.00
2018-08-10T09:44:43.841Z,27.73
2018-08-10T09:45:43.909Z,27.39
2018-08-10T09:46:43.859Z,27.26
2018-08-10T09:47:43.864Z,27.14
2018-08-10T09:48:43.869Z,27.00
2018-08-10T09:49:43.878Z,26.90
2018-08-10T09:50:43.878Z,26.95
2018-08-10T09:51:43.902Z,26.93
2018-08-10T09:52:43.891Z,26.88
2018-08-10T09:53:43.904Z,26.78
2018-08-10T09:54:43.950Z,26.75
2018-08-10T09:55:43.910Z,26.75
2018-08-10T09:56:43.914Z,26.71
2018-08-10T09:57:43.919Z,26.63
2018-08-10T09:58:44.840Z,26.51
2018-08-10T09:59:43.941Z,26.56
2018-08-10T10:00:43.941Z,26.55
2018-08-10T10:01:43.944Z,26.43
2018-08-10T10:02:43.952Z,26.31
2018-08-10T10:03:43.971Z,26.38
2018-08-10T10:04:43.956Z,26.29
2018-08-10T10:05:43.964Z,26.34
2018-08-10T10:06:43.972Z,26.25
2018-08-10T10:07:44.650Z,26.18
2018-08-10T10:08:43.977Z,26.21
2018-08-10T10:09:43.986Z,26.03
2018-08-10T10:10:43.991Z,26.03
2018-08-10T10:11:43.993Z,26.09
2018-08-10T10:12:44.000Z,26.00
2018-08-10T10:13:44.004Z,26.02
2018-08-10T10:14:44.652Z,26.05
2018-08-10T10:15:44.022Z,26.05
2018-08-10T10:16:44.019Z,26.16
2018-08-10T10:17:44.029Z,26.22
2018-08-10T10:18:44.027Z,26.28
2018-08-10T10:19:44.097Z,26.34
2018-08-10T10:20:44.040Z,26.48
2018-08-10T10:21:44.043Z,26.59
2018-08-10T10:22:44.124Z,26.75
2018-08-10T10:23:44.055Z,26.81
2018-08-10T10:24:44.060Z,26.89
2018-08-10T10:25:44.063Z,26.99
2018-08-10T10:26:44.068Z,27.11
2018-08-10T10:27:44.072Z,27.12
2018-08-10T10:28:44.238Z,27.12
2018-08-10T10:29:44.082Z,27.07
2018-08-10T10:30:44.086Z,27.11
2018-08-10T10:31:44.092Z,27.12
2018-08-10T10:32:44.109Z,27.08
2018-08-10T10:33:44.103Z,27.07
2018-08-10T10:34:44.111Z,27.02
2018-08-10T10:35:44.113Z,26.99
2018-08-10T10:36:44.117Z,27.17
2018-08-10T10:37:44.122Z,27.48
2018-08-10T10:38:44.132Z,28.51
2018-08-10T10:39:44.173Z,29.49
2018-08-10T10:40:44.166Z,30.50
2018-08-10T10:41:44.165Z,31.46
2018-08-10T10:42:44.163Z,32.31
2018-08-10T10:43:44.182Z,33.00
2018-08-10T10:44:44.173Z,33.77
2018-08-10T10:45:44.176Z,34.38
2018-08-10T10:46:44.183Z,35.07
2018-08-10T10:47:44.192Z,35.39
2018-08-10T10:48:44.200Z,35.79
2018-08-10T10:49:44.210Z,36.30
2018-08-10T10:50:44.240Z,36.76
2018-08-10T10:51:44.228Z,36.99
2018-08-10T10:52:44.243Z,37.45
2018-08-10T10:53:44.379Z,37.33
2018-08-10T10:54:44.258Z,37.33
2018-08-10T10:55:44.274Z,37.74
2018-08-10T10:56:44.470Z,38.21
2018-08-10T10:57:44.293Z,38.39
2018-08-10T10:58:44.304Z,38.54
2018-08-10T10:59:44.316Z,38.82
2018-08-10T11:00:44.329Z,38.92
2018-08-10T11:01:44.417Z,38.17
2018-08-10T11:02:44.353Z,37.84
2018-08-10T11:03:44.366Z,38.15
2018-08-10T11:04:44.376Z,38.46
2018-08-10T11:05:44.397Z,38.73
2018-08-10T11:06:44.405Z,39.18
2018-08-10T11:07:44.416Z,39.19
2018-08-10T11:08:44.428Z,38.27
2018-08-10T11:09:44.443Z,37.20
2018-08-10T11:10:44.456Z,37.42
2018-08-10T11:11:44.469Z,37.68
2018-08-10T11:12:44.481Z,38.09
2018-08-10T11:13:44.495Z,38.55
2018-08-10T11:14:44.507Z,38.76
2018-08-10T11:15:44.520Z,39.06
2018-08-10T11:16:44.536Z,39.12
2018-08-10T11:17:44.553Z,39.06
2018-08-10T11:18:44.562Z,38.82
2018-08-10T11:19:44.576Z,38.68
2018-08-10T11:20:44.662Z,39.18
2018-08-10T11:21:44.603Z,39.36
2018-08-10T11:22:44.618Z,39.15
2018-08-10T11:23:44.830Z,39.22
2018-08-10T11:24:44.646Z,39.36
2018-08-10T11:25:44.790Z,39.30
2018-08-10T11:26:44.675Z,39.30
2018-08-10T11:27:44.701Z,39.24
2018-08-10T11:28:44.762Z,38.86
2018-08-10T11:29:44.719Z,38.57
2018-08-10T11:30:44.733Z,38.31
2018-08-10T11:31:44.749Z,38.06
2018-08-10T11:32:46.687Z,37.74
2018-08-10T11:33:44.781Z,36.93
2018-08-10T11:34:44.791Z,36.64
2018-08-10T11:35:44.806Z,36.00
2018-08-10T11:36:44.813Z,35.53
2018-08-10T11:37:44.825Z,35.07
2018-08-10T11:38:44.840Z,34.80
2018-08-10T11:39:44.854Z,34.20
2018-08-10T11:40:44.860Z,34.01
2018-08-10T11:41:44.871Z,33.80
2018-08-10T11:42:44.888Z,33.37
2018-08-10T11:43:44.893Z,33.23
2018-08-10T11:44:44.902Z,32.96
2018-08-10T11:45:44.943Z,32.85
2018-08-10T11:46:44.929Z,32.65
2018-08-10T11:47:44.932Z,32.34
2018-08-10T11:48:44.963Z,32.34
2018-08-10T11:49:44.949Z,32.22
2018-08-10T11:50:45.131Z,32.14
2018-08-10T11:51:45.055Z,32.03
2018-08-10T11:52:44.975Z,31.85
2018-08-10T11:53:44.985Z,31.80
2018-08-10T11:54:44.996Z,31.62
2018-08-10T11:55:45.268Z,31.55
2018-08-10T11:56:45.012Z,31.46
2018-08-10T11:57:45.018Z,31.33
2018-08-10T11:58:45.027Z,31.36
2018-08-10T11:59:45.044Z,31.25
2018-08-10T12:00:45.044Z,31.15
2018-08-10T12:01:45.058Z,30.80
2018-08-10T12:02:45.133Z,30.69
2018-08-10T12:03:45.065Z,30.53
2018-08-10T12:04:45.087Z,30.50
2018-08-10T12:05:45.097Z,30.35
2018-08-10T12:06:45.095Z,30.16
2018-08-10T12:07:45.106Z,29.84
2018-08-10T12:08:45.104Z,29.79
2018-08-10T12:09:45.112Z,29.61
2018-08-10T12:10:45.121Z,29.36
2018-08-10T12:11:45.133Z,29.14
2018-08-10T12:12:45.211Z,28.88
2018-08-10T12:13:45.143Z,28.56
2018-08-10T12:14:45.147Z,28.45
2018-08-10T12:15:45.157Z,28.25
2018-08-10T12:16:45.163Z,28.30
2018-08-10T12:17:45.169Z,28.26
2018-08-10T12:18:45.174Z,28.20
2018-08-10T12:19:45.182Z,28.14
2018-08-10T12:20:45.188Z,28.25
2018-08-10T12:21:45.198Z,28.22
2018-08-10T12:22:45.202Z,28.33
2018-08-10T12:23:45.206Z,28.41
2018-08-10T12:24:45.286Z,28.51
2018-08-10T12:25:45.219Z,28.60
2018-08-10T12:26:45.226Z,28.59
2018-08-10T12:27:45.243Z,28.52
2018-08-10T12:28:45.240Z,28.33
2018-08-10T12:29:45.246Z,28.42
2018-08-10T12:30:45.252Z,28.25
2018-08-10T12:31:45.263Z,28.23
2018-08-10T12:32:45.277Z,28.27
2018-08-10T12:33:45.275Z,28.23
2018-08-10T12:34:45.276Z,28.23
2018-08-10T12:35:45.283Z,28.17
2018-08-10T12:36:45.288Z,28.22
2018-08-10T12:37:45.315Z,28.20
2018-08-10T12:38:45.314Z,28.29
2018-08-10T12:39:45.307Z,28.26
2018-08-10T12:40:45.312Z,28.35
2018-08-10T12:41:45.318Z,28.48
2018-08-10T12:42:45.325Z,28.56
2018-08-10T12:43:45.333Z,28.54
2018-08-10T12:44:45.340Z,28.32
2018-08-10T12:45:45.343Z,28.19
2018-08-10T12:46:45.387Z,28.02
2018-08-10T12:47:45.491Z,27.96
2018-08-10T12:48:45.361Z,27.87
2018-08-10T12:49:45.369Z,27.89
2018-08-10T12:50:45.448Z,27.86
2018-08-10T12:51:45.379Z,27.71
2018-08-10T12:52:45.387Z,27.68